createdAt,value
2022-10-05T06:32:22.040Z,4.15
2022-10-05T06:37:24.157Z,4.15
2022-10-05T06:42:31.816Z,5.00
2022-10-05T06:47:52.434Z,5.47
2022-10-05T06:53:26.537Z,4.97
2022-10-05T06:58:32.321Z,4.22
2022-10-05T07:03:41.098Z,4.82
2022-10-05T07:08:47.246Z,5.75
2022-10-05T07:14:00.281Z,4.28
2022-10-05T07:19:04.615Z,5.18
2022-10-05T07:24:07.106Z,4.82
2022-10-05T07:29:17.241Z,4.35
2022-10-05T07:34:24.206Z,4.50
2022-10-05T07:39:42.076Z,4.18
2022-10-05T07:44:46.713Z,4.20
2022-10-05T07:49:48.340Z,3.70
2022-10-05T07:54:48.784Z,4.53
2022-10-05T07:59:56.945Z,3.83
2022-10-05T08:05:01.327Z,3.83
2022-10-05T08:10:04.737Z,3.33
2022-10-05T08:15:06.765Z,3.55
2022-10-05T08:20:16.097Z,4.15
2022-10-05T08:25:20.482Z,4.38
2022-10-05T08:30:18.823Z,4.03
2022-10-05T08:35:24.263Z,7.45
2022-10-05T08:40:46.573Z,3.97
2022-10-05T08:46:02.398Z,3.70
2022-10-05T08:51:10.609Z,3.50
2022-10-05T08:56:28.473Z,3.50
2022-10-05T09:01:32.584Z,4.03
2022-10-05T09:06:51.127Z,3.30
2022-10-05T09:11:58.735Z,4.25
2022-10-05T09:16:59.871Z,5.43
2022-10-05T09:21:58.602Z,4.10
2022-10-05T09:27:03.519Z,3.65
2022-10-05T09:32:13.009Z,3.50
2022-10-05T09:37:33.113Z,3.42
2022-10-05T09:42:48.945Z,3.90
2022-10-05T09:47:59.900Z,4.20
2022-10-05T09:53:05.984Z,3.55
2022-10-05T09:58:28.450Z,3.35
2022-10-05T10:03:45.086Z,3.35
2022-10-05T10:08:58.131Z,3.33
2022-10-05T10:14:05.576Z,2.92
2022-10-05T10:19:20.052Z,3.08
2022-10-05T10:24:21.963Z,3.13
2022-10-05T10:29:44.149Z,3.50
2022-10-05T10:35:00.820Z,3.28
2022-10-05T10:40:13.749Z,2.95
2022-10-05T10:45:24.060Z,3.97
2022-10-05T10:50:43.278Z,4.03
2022-10-05T10:55:48.356Z,3.42
2022-10-05T11:00:54.688Z,3.15
2022-10-05T11:06:04.354Z,3.80
2022-10-05T11:11:25.300Z,3.78
2022-10-05T11:16:33.406Z,3.72
2022-10-05T11:21:36.807Z,3.30
2022-10-05T11:26:43.329Z,3.20
2022-10-05T11:31:50.816Z,3.40
2022-10-05T11:37:06.962Z,3.33
2022-10-05T11:42:18.882Z,2.95
2022-10-05T11:47:20.877Z,3.42
2022-10-05T11:52:22.537Z,2.75
2022-10-05T11:57:25.644Z,3.30
2022-10-05T12:02:42.983Z,2.40
2022-10-05T12:07:47.534Z,2.10
2022-10-05T12:12:52.753Z,2.27
2022-10-05T12:17:56.523Z,1.98
2022-10-05T12:22:59.014Z,1.60
2022-10-05T12:28:03.656Z,1.55
2022-10-05T12:33:06.025Z,2.53
2022-10-05T12:38:09.137Z,2.30
2022-10-05T12:43:12.297Z,1.63
2022-10-05T12:48:20.530Z,1.33
2022-10-05T12:53:24.352Z,1.58
2022-10-05T12:58:29.482Z,1.90
2022-10-05T13:03:31.558Z,2.60
2022-10-05T13:08:34.508Z,2.35
2022-10-05T13:13:40.806Z,2.05
2022-10-05T13:18:44.377Z,2.50
2022-10-05T13:23:46.899Z,2.53
2022-10-05T13:28:52.144Z,2.33
2022-10-05T13:34:04.673Z,2.25
2022-10-05T13:39:06.022Z,2.58
2022-10-05T13:44:11.530Z,2.40
2022-10-05T13:49:19.335Z,2.00
2022-10-05T13:54:20.420Z,2.33
2022-10-05T13:59:31.665Z,2.30
2022-10-05T14:04:31.239Z,1.67
2022-10-05T14:09:31.007Z,3.20
2022-10-05T14:14:32.174Z,2.00
2022-10-05T14:19:33.136Z,1.60
2022-10-05T14:24:47.650Z,1.90
2022-10-05T14:29:53.726Z,1.73
2022-10-05T14:34:57.469Z,1.80
2022-10-05T14:39:58.942Z,2.63
2022-10-05T14:45:12.636Z,1.70
2022-10-05T14:50:16.917Z,3.00
2022-10-05T14:55:30.557Z,2.75
2022-10-05T15:00:33.773Z,2.13
2022-10-05T15:05:34.557Z,1.58
2022-10-05T15:10:37.485Z,2.30
2022-10-05T15:15:39.553Z,2.90
2022-10-05T15:20:43.825Z,5.30
2022-10-05T15:25:47.151Z,3.00
2022-10-05T15:30:52.774Z,4.03
2022-10-05T15:36:00.755Z,3.20
2022-10-05T15:41:01.315Z,3.22
2022-10-05T15:46:06.420Z,5.10
2022-10-05T15:51:10.840Z,4.72
2022-10-05T15:56:12.013Z,4.30
2022-10-05T16:01:13.525Z,3.05
2022-10-05T16:06:34.086Z,3.78
2022-10-05T16:11:56.533Z,4.25
2022-10-05T16:17:00.657Z,3.80
2022-10-05T16:22:02.805Z,5.50
2022-10-05T16:27:02.201Z,3.78
2022-10-05T16:32:04.601Z,4.22
2022-10-05T16:37:09.884Z,4.13
2022-10-05T16:42:13.561Z,8.43
2022-10-05T16:47:29.897Z,3.78
2022-10-05T16:52:29.104Z,3.17
2022-10-05T16:57:29.542Z,4.18
2022-10-05T17:02:43.690Z,8.07
2022-10-05T17:07:56.002Z,7.25
2022-10-05T17:12:59.512Z,8.10
2022-10-05T17:18:18.554Z,8.13
2022-10-05T17:23:38.131Z,5.22
2022-10-05T17:28:41.247Z,3.60
2022-10-05T17:33:54.845Z,3.25
2022-10-05T17:39:12.533Z,6.53
2022-10-05T17:44:30.785Z,7.03
2022-10-05T17:50:08.507Z,5.32
2022-10-05T17:55:31.984Z,3.00
2022-10-05T18:00:44.281Z,3.00
2022-10-05T18:05:43.481Z,2.90
2022-10-05T18:11:03.390Z,2.97
2022-10-05T18:16:01.725Z,2.90
2022-10-05T18:21:23.720Z,2.97
2022-10-05T18:26:31.903Z,3.17
2022-10-05T18:31:34.254Z,3.20
2022-10-05T18:36:42.771Z,2.10
2022-10-05T18:41:47.841Z,2.33
2022-10-05T18:46:48.304Z,2.83
2022-10-05T18:51:52.022Z,2.17
2022-10-05T18:56:55.531Z,2.47
2022-10-05T19:01:59.477Z,2.72
2022-10-05T19:07:04.887Z,2.40
2022-10-05T19:12:09.464Z,2.47
2022-10-05T19:17:18.269Z,2.13
2022-10-05T19:22:20.951Z,2.42
2022-10-05T19:27:28.153Z,2.30
2022-10-05T19:32:32.760Z,2.22
2022-10-05T19:37:37.710Z,2.15
2022-10-05T19:42:47.552Z,2.45
2022-10-05T19:47:52.696Z,2.47
2022-10-05T19:52:51.928Z,2.50
2022-10-05T19:57:53.533Z,2.20
2022-10-05T20:02:52.226Z,2.58
2022-10-05T20:07:51.646Z,2.15
2022-10-05T20:12:56.442Z,2.05
2022-10-05T20:23:23.621Z,1.85
2022-10-05T20:28:31.496Z,2.50
2022-10-05T20:33:30.518Z,1.90
2022-10-05T20:38:40.617Z,1.80
2022-10-05T20:43:40.934Z,1.80
2022-10-05T20:48:40.272Z,1.45
2022-10-05T20:53:39.974Z,1.60
2022-10-05T20:58:38.196Z,1.83
2022-10-05T21:03:36.449Z,1.58
2022-10-05T21:08:36.328Z,1.27
2022-10-05T21:13:35.987Z,2.17
2022-10-05T21:18:34.422Z,2.40
2022-10-05T21:23:32.894Z,2.17
2022-10-05T21:28:32.417Z,1.70
2022-10-05T21:33:32.782Z,2.17
2022-10-05T21:38:31.216Z,1.95
2022-10-05T21:43:29.974Z,1.63
2022-10-05T21:48:28.865Z,2.05
2022-10-05T21:53:30.892Z,2.03
2022-10-05T21:58:29.969Z,1.67
2022-10-05T22:03:28.545Z,1.92
2022-10-05T22:08:30.157Z,2.10
2022-10-05T22:13:28.749Z,2.15
2022-10-05T22:18:27.363Z,1.77
2022-10-05T22:23:25.921Z,1.88
2022-10-05T22:28:26.161Z,2.20
2022-10-05T22:33:24.921Z,2.28
2022-10-05T22:38:23.094Z,1.80
2022-10-05T22:43:21.342Z,2.25
2022-10-05T22:48:20.970Z,2.13
2022-10-05T22:53:19.313Z,2.33
2022-10-05T22:58:17.578Z,2.40
2022-10-05T23:03:16.176Z,2.45
2022-10-05T23:08:16.159Z,2.13
2022-10-05T23:13:14.522Z,2.40
2022-10-05T23:18:12.816Z,2.35
2022-10-05T23:23:11.208Z,2.22
2022-10-05T23:28:10.934Z,2.72
2022-10-05T23:33:09.217Z,2.60
2022-10-05T23:38:07.580Z,2.30
2022-10-05T23:43:05.785Z,2.65
2022-10-05T23:48:05.397Z,2.30
2022-10-05T23:53:03.706Z,2.35
2022-10-05T23:58:02.013Z,2.08
